Rising Eagle — J8B4538 — position and weather

sailwx.info

Track history (hours):
 
Tides and Currents Weather Stations Pressure Air Temp Water Temp Dewpoint Dewpoint Depression Visibility Wind Speed Wind Dir Waves Ship Positions

Rising Eagle

Last reported at 2018-Apr-25 07:42 UTC. Time now 2018-May-23 05:00 UTC.
Position N 32°02' E 120°26'.
Warning: this ship's position is 27 days out of date.

Length 167 m; draft 6 m.

Type: Cargo ship. MMSI: 376369000.

Date/timePositionNaut miles runAvg speedWind from/ knotsBaromVisibWave heightAir tempDewpointWater temp
2018-Apr-25 07:42N 32°02' E 120°26'2 8.5
2018-Apr-25 07:24N 32°02' E 120°28'41 8.6
2018-Apr-25 02:41N 31°42' E 121°10'311.4
2018-Apr-25 02:25N 31°40' E 121°13'511.4
2018-Apr-25 01:58N 31°36' E 121°17'511.1
2018-Apr-25 01:30N 31°32' E 121°21'3610.3
2018-Apr-24 22:00N 31°09' E 121°53'611.1
2018-Apr-24 21:25N 31°06' E 121°59'510.8
2018-Apr-24 20:59N 31°04' E 122°05'510.7
2018-Apr-24 20:30N 31°03' E 122°10'3 6.2
2018-Apr-24 20:00N 31°03' E 122°14'4 7.0
2018-Apr-24 19:30N 31°03' E 122°18'  
Track history (hours):
 
Tides and Currents Weather Stations Pressure Air Temp Water Temp Dewpoint Dewpoint Depression Visibility Wind Speed Wind Dir Waves Ship Positions

Rising Eagle

Last reported at 2018-Apr-25 07:42 UTC. Time now 2018-May-23 05:00 UTC.
Position N 32°02' E 120°26'.
Warning: this ship's position is 27 days out of date.

Length 167 m; draft 6 m.

Type: Cargo ship. MMSI: 376369000.

Date/timePositionNaut miles runAvg speedWind from/ knotsBaromVisibWave heightAir tempDewpointWater temp
2018-Apr-25 07:42N 32°02' E 120°26'2 8.5
2018-Apr-25 07:24N 32°02' E 120°28'41 8.6
2018-Apr-25 02:41N 31°42' E 121°10'311.4
2018-Apr-25 02:25N 31°40' E 121°13'511.4
2018-Apr-25 01:58N 31°36' E 121°17'511.1
2018-Apr-25 01:30N 31°32' E 121°21'3610.3
2018-Apr-24 22:00N 31°09' E 121°53'611.1
2018-Apr-24 21:25N 31°06' E 121°59'510.8
2018-Apr-24 20:59N 31°04' E 122°05'510.7
2018-Apr-24 20:30N 31°03' E 122°10'3 6.2
2018-Apr-24 20:00N 31°03' E 122°14'4 7.0
2018-Apr-24 19:30N 31°03' E 122°18'  

Dump ship's entire track history